Airfield :
LOGIN :

Register | Disclaimer

   EN    FR    IT 

 










Legend :    VFR   Marginal VFR   IFR   Intensive IFR   Very Intensive IFR
Visi :
Ceiling :
>= 8 km
>= 3000ft
5 to 8 km
1000 to 3000 ft
1500m to 5 km
500 to 1000 ft
800 to 1500m
200 to 500 ft
< 800m
< 200 ft
Symbols :   Thunderstorms  Fog  Heavy snow  Heavy precipitations  Wind > 20 kt
SIGMETs :     Misc.  Thunderstorms  Icing  Turbulence  Mountain Waves  Volcanic Ashes







- Airport Elevation : 74 ft
- IATA code : NDZ


ETMN - Cuxhaven Nordholz Sea AB

CURRENT METAR :
  • 141720Z 30018KT 9999 SCT012 SCT020 BKN031 18/16 Q1013 BLU BLU

EXPIRED METARs :
  • 141707Z 30018KT 9999 SCT008 BKN020 BKN042 18/16 Q1013 WHT BLU TEMPO WHT
  • 141641Z 31019KT 5000 -SHRA BKN009 BKN027 18/16 Q1012 GRN BLU TEMPO GRN
  • 141620Z 31017KT 9999 FEW008 BKN012 BKN022 19/17 Q1012 RESHRA GRN BLU TEMPO GRN
  • 141605Z 30015KT 9999 BKN013 BKN047 19/17 Q1012 RESHRA GRN BLU TEMPO GRN
  • 141520Z 30014KT 9999 SCT013 BKN048 20/16 Q1012 BLU BLU

TAF TAF ETMN
Valid from the 14 at 17:00 until the 15 at 02:00 UTC


141620Z 1417/1502 28015G25KT 9999 NSW SCT015 SCT030
PROB30 1417/1502 29020G30KT 5000 SHRA SCT008 BKN012CB CANCEL 1850
No reported NOTAMs for that airfield.



MET'MAP, your aeronautical weather chart ! - Copyright ORBIFLY December 2007 - Disclaimer

ORBIFLY MET'MAP TEAM :

Programming & Development : Alexandra Zaïnal
Concept & Development : Baudouin d'Aumeries
Co-Development & Prog : Marc-Olivier Méhu
Technical & hardware support : Manuel Goepfert

Contact : metmap@orbifly.com




SOURCES & CREDITS :

   NOAA